Latest Weather Observations for Moranbah Airport

IDQ60801

Issued at 2:52 pm EST Tuesday 19 June 2018 (issued every 10 minutes, with the page automatically refreshed every 10 minutes)

About weather observations | Map of weather stations | Latest weather observations for QLD | Other Formats
Station Details ID: 034035 Name: MORANBAH AIRPORT Lat: -22.06 Lon: 148.08 Height: 232.2 m
Data from the previous 72 hours. | See also: Recent months at Moranbah Airport
Date/Time
EST
Temp
°C
App
Temp
°C
Dew
Point
°C
Rel
Hum
%
Delta-T
°C
Wind Press
QNH
hPa
Press
MSL
hPa
Rain since
9am
mm
Dir  Spd
km/h
Gust
km/h
Spd
kts
Gust
kts
19/02:30pm 20.7 16.4 -4.4 18 10.3 SE 9 17 5 9 1020.3 1019.9 0.0
19/02:00pm 19.9 15.0 -3.7 20 9.8 SSE 13 19 7 10 1020.8 1020.4 0.0
19/01:30pm 20.4 16.4 -2.6 21 9.8 S 9 19 5 10 1021.2 1020.8 0.0
19/01:00pm 19.5 14.6 -3.4 21 9.5 S 13 19 7 10 1021.6 1021.1 0.0
19/12:30pm 18.8 13.2 -2.7 23 9.0 SE 17 24 9 13 1022.3 1021.9 0.0
19/12:00pm 17.7 12.1 -2.5 25 8.4 SE 17 26 9 14 1022.9 1022.5 0.0
19/11:30am 17.1 11.0 -2.5 26 8.1 SE 20 28 11 15 1023.4 1023.0 0.0
19/11:00am 17.2 11.3 -1.0 29 7.7 SE 20 26 11 14 1023.6 1023.2 0.0
19/10:30am 16.5 10.9 0.2 33 7.1 ESE 19 26 10 14 1024.0 1023.6 0.0
19/10:00am 15.2 9.5 0.6 37 6.3 SE 20 28 11 15 1024.2 1023.8 0.0
19/09:30am 14.2 7.4 0.5 39 5.9 SSE 26 35 14 19 1024.5 1024.1 0.0
19/09:15am 13.8 6.6 0.8 41 5.6 SE 28 43 15 23 1024.4 1024.0 0.0
19/09:00am 12.9 7.1 0.0 41 5.4 SE 20 24 11 13 1024.4 1024.0 0.0
19/08:30am 10.3 8.0 -2.7 40 5.0 CALM 0 0 0 0 1024.5 1024.1 0.0
19/08:00am 7.1 4.8 -2.6 50 3.6 CALM 0 0 0 0 1024.2 1023.8 0.0
19/07:30am 3.5 1.1 -3.3 61 2.4 CALM 0 0 0 0 1024.2 1023.8 0.0
19/07:00am 0.5 -3.4 -4.7 68 1.7 SW 7 9 4 5 1024.0 1023.6 0.0
19/06:30am 0.2 -2.4 -4.8 69 1.6 CALM 0 0 0 0 1023.9 1023.5 0.0
19/06:00am -0.2 -2.8 -4.8 71 1.5 CALM 0 0 0 0 1023.5 1023.1 0.0
19/05:30am 0.3 -2.3 -4.7 69 1.6 CALM 0 0 0 0 1023.1 1022.7 0.0
19/05:00am 0.4 -2.2 -5.2 66 1.8 CALM 0 0 0 0 1023.0 1022.6 0.0
19/04:30am 2.3 -0.3 -5.1 58 2.6 CALM 0 0 0 0 1022.8 1022.4 0.0
19/04:00am 1.6 -1.0 -4.5 64 2.1 CALM 0 0 0 0 1022.7 1022.3 0.0
19/03:30am 2.0 -0.6 -4.9 60 2.4 CALM 0 0 0 0 1022.8 1022.4 0.0
19/03:00am 2.8 -1.2 -5.6 54 2.7 S 7 9 4 5 1022.8 1022.4 0.0
19/02:30am 1.8 -1.3 -6.0 56 2.6 N 2 9 1 5 1022.9 1022.5 0.0
19/02:00am 2.0 -0.7 -5.8 56 2.6 CALM 0 2 0 1 1022.9 1022.5 0.0
19/01:30am 5.0 0.2 -5.6 46 3.5 S 11 13 6 7 1023.1 1022.7 0.0
19/01:00am 3.0 -0.1 -5.9 52 2.9 ESE 2 9 1 5 1023.1 1022.7 0.0
19/12:30am 5.0 1.2 -5.6 46 3.5 ENE 6 9 3 5 1023.2 1022.8 0.0
19/12:00am 3.5 -0.3 -5.7 51 3.0 N 6 9 3 5 1023.2 1022.8 0.0
 
Date/Time
EST
Temp
°C
App
Temp
°C
Dew
Point
°C
Rel
Hum
%
Delta-T
°C
Wind Press
QNH
hPa
Press
MSL
hPa
Rain since
9am
mm
Dir  Spd
km/h
Gust
km/h
Spd
kts
Gust
kts
18/11:30pm 3.9 1.2 -6.4 47 3.3 CALM 0 6 0 3 1023.1 1022.7 0.0
18/11:00pm 4.7 1.2 -6.8 43 3.7 SSW 4 7 2 4 1023.1 1022.7 0.0
18/10:30pm 4.6 1.7 -7.5 41 3.8 CALM 0 0 0 0 1023.2 1022.8 0.0
18/10:00pm 4.9 2.1 -6.9 42 3.8 CALM 0 0 0 0 1023.1 1022.7 0.0
18/09:30pm 5.6 2.9 -6.3 42 3.9 CALM 0 0 0 0 1022.8 1022.4 0.0
18/09:00pm 7.9 3.6 -8.6 30 5.3 SW 7 9 4 5 1022.7 1022.3 0.0
18/08:30pm 9.9 5.7 -7.7 28 6.0 SSW 7 7 4 4 1022.7 1022.3 0.0
18/08:00pm 11.0 5.7 -7.7 26 6.4 SSE 13 15 7 8 1022.4 1022.0 0.0
18/07:30pm 11.8 6.9 -7.6 25 6.8 S 11 13 6 7 1022.1 1021.6 0.0
18/07:00pm 11.7 6.8 -7.6 25 6.7 S 11 13 6 7 1021.9 1021.4 0.0
18/06:30pm 13.3 8.4 -7.4 23 7.4 SSW 11 13 6 7 1021.6 1021.1 0.0
18/06:00pm 14.4 9.1 -7.6 21 7.9 SSW 13 13 7 7 1021.1 1020.7 0.0
18/05:30pm 16.4 11.0 -8.7 17 9.0 S 13 17 7 9 1020.7 1020.3 0.0
18/05:00pm 18.6 13.3 -7.7 16 9.9 SSW 13 20 7 11 1020.4 1020.0 0.0
18/04:30pm 19.6 14.2 -8.6 14 10.6 SW 13 20 7 11 1020.1 1019.7 0.0
18/04:00pm 20.1 14.9 -6.5 16 10.4 SSW 13 22 7 12 1019.8 1019.4 0.0
18/03:30pm 20.3 14.7 -6.3 16 10.5 SSW 15 24 8 13 1019.8 1019.4 0.0
18/03:00pm 20.5 14.6 -6.1 16 10.5 SW 17 22 9 12 1019.9 1019.5 0.0
18/02:30pm 20.2 15.1 -5.6 17 10.3 S 13 24 7 13 1020.2 1019.8 0.0
18/02:00pm 19.6 14.3 -6.9 16 10.2 SSW 13 24 7 13 1020.3 1019.9 0.0
18/01:30pm 20.3 15.2 -4.8 18 10.2 SW 13 24 7 13 1020.6 1020.2 0.0
18/01:00pm 19.4 14.7 -4.8 19 9.7 SW 11 17 6 9 1021.5 1021.0 0.0
18/12:30pm 18.7 14.1 -4.0 21 9.2 SW 11 19 6 10 1022.1 1021.6 0.0
18/12:00pm 18.4 14.3 -3.1 23 8.9 SE 9 19 5 10 1022.5 1022.1 0.0
18/11:30am 17.3 12.3 -4.0 23 8.6 SSE 13 19 7 10 1022.9 1022.5 0.0
18/11:00am 16.7 11.7 -3.9 24 8.2 SE 13 24 7 13 1023.4 1023.0 0.0
18/10:30am 16.3 10.1 -3.2 26 7.9 SE 20 28 11 15 1023.6 1023.2 0.0
18/10:00am 16.1 10.1 -2.9 27 7.7 SE 19 24 10 13 1023.8 1023.4 0.0
18/09:30am 14.7 8.4 -3.6 28 7.2 SE 20 28 11 15 1024.0 1023.6 0.0
18/09:00am 14.2 6.4 -3.6 29 6.9 SE 28 37 15 20 1023.8 1023.4 0.0
18/08:45am 13.8 6.0 -3.5 30 6.8 SE 28 35 15 19 1023.6 1023.2 0.0
18/08:30am 13.1 7.9 -2.8 33 6.3 SE 15 17 8 9 1023.9 1023.5 0.0
18/08:00am 10.6 7.2 -2.1 41 4.9 ENE 6 7 3 4 1023.6 1023.2 0.0
18/07:30am 7.2 3.8 -2.2 51 3.5 ENE 6 7 3 4 1023.5 1023.1 0.0
18/07:00am 7.9 3.0 -3.3 45 4.1 SSE 13 15 7 8 1023.2 1022.8 0.0
18/06:30am 8.4 3.5 -3.1 44 4.3 S 13 15 7 8 1023.0 1022.6 0.0
18/06:00am 7.8 4.0 -3.4 45 4.1 S 7 11 4 6 1022.5 1022.1 0.0
18/05:30am 8.9 4.7 -3.6 41 4.6 SSE 9 11 5 6 1022.3 1021.9 0.0
18/05:00am 10.7 5.3 -4.1 35 5.5 SSE 15 19 8 10 1022.0 1021.5 0.0
18/04:30am 12.0 5.9 -3.8 33 6.0 S 19 24 10 13 1021.8 1021.3 0.0
18/04:00am 12.3 6.1 -3.5 33 6.1 S 20 26 11 14 1021.8 1021.3 0.0
18/03:30am 12.1 6.8 -3.3 34 5.9 S 15 20 8 11 1021.9 1021.4 0.0
18/03:00am 12.1 7.2 -3.7 33 6.0 S 13 17 7 9 1021.8 1021.3 0.0
18/02:30am 12.8 7.5 -3.5 32 6.3 S 15 20 8 11 1021.7 1021.2 0.0
18/02:00am 13.3 8.4 -3.4 31 6.5 S 13 20 7 11 1021.9 1021.4 0.0
18/01:30am 13.4 8.6 -2.5 33 6.3 SSW 13 17 7 9 1022.2 1021.8 0.0
18/01:00am 11.3 7.0 1.0 49 4.3 SSW 13 15 7 8 1022.3 1021.9 0.0
18/12:30am 9.1 5.5 0.6 55 3.5 SSW 9 11 5 6 1022.4 1022.0 0.0
18/12:00am 10.1 7.2 1.7 56 3.5 SSW 6 9 3 5 1022.2 1021.8 0.0
 
Date/Time
EST
Temp
°C
App
Temp
°C
Dew
Point
°C
Rel
Hum
%
Delta-T
°C
Wind Press
QNH
hPa
Press
MSL
hPa
Rain since
9am
mm
Dir  Spd
km/h
Gust
km/h
Spd
kts
Gust
kts
17/11:30pm 9.7 7.5 1.1 55 3.6 S 2 7 1 4 1022.3 1021.9 0.0
17/11:00pm 9.8 6.8 0.7 53 3.7 WSW 6 7 3 4 1022.4 1022.0 0.0
17/10:30pm 10.2 7.1 1.1 53 3.8 NNW 7 7 4 4 1022.5 1022.1 0.0
17/10:00pm 10.2 7.6 0.8 52 3.9 WNW 4 7 2 4 1022.5 1022.1 0.0
17/09:30pm 10.6 8.9 1.7 54 3.8 CALM 0 0 0 0 1022.1 1021.6 0.0
17/09:00pm 10.5 7.3 -0.3 47 4.4 S 6 7 3 4 1022.0 1021.5 0.0
17/08:30pm 11.0 9.0 -0.2 46 4.6 CALM 0 0 0 0 1021.9 1021.4 0.0
17/08:00pm 12.0 8.8 -0.5 42 5.1 S 6 7 3 4 1021.6 1021.1 0.0
17/07:30pm 14.4 11.0 -0.5 36 6.3 SSE 7 9 4 5 1021.2 1020.8 0.0
17/07:00pm 16.7 13.0 -0.1 32 7.3 S 9 11 5 6 1020.9 1020.5 0.0
17/06:30pm 17.0 12.9 -0.2 31 7.5 S 11 13 6 7 1020.7 1020.3 0.0
17/06:00pm 17.7 13.6 -0.1 30 7.8 SSW 11 13 6 7 1020.4 1020.0 0.0
17/05:30pm 18.9 13.7 0.0 28 8.4 SW 17 22 9 12 1020.2 1019.8 0.0
17/05:00pm 20.3 14.7 -0.3 25 9.2 SW 19 24 10 13 1019.6 1019.2 0.0
17/04:30pm 21.2 16.0 -0.1 24 9.6 SW 17 24 9 13 1019.3 1018.9 0.0
17/04:00pm 22.2 17.0 0.1 23 10.1 SW 17 24 9 13 1019.0 1018.6 0.0
17/03:30pm 23.5 18.7 -0.1 21 10.8 SW 15 22 8 12 1018.9 1018.5 0.0
17/03:00pm 24.0 19.1 -0.3 20 11.1 SSW 15 22 8 12 1018.9 1018.5 0.0
17/02:30pm 23.3 19.5 -0.9 20 10.9 SSE 9 15 5 8 1019.1 1018.7 0.0
17/02:00pm 22.2 18.4 -0.5 22 10.2 SSE 9 15 5 8 1019.5 1019.1 0.0
17/01:30pm 22.2 18.9 0.1 23 10.1 WSW 7 13 4 7 1019.8 1019.4 0.0
17/01:00pm 21.6 17.2 0.2 24 9.7 SE 13 19 7 10 1020.4 1020.0 0.0
17/12:30pm 21.7 17.4 0.8 25 9.6 SE 13 20 7 11 1021.1 1020.7 0.0
17/12:00pm 20.6 16.4 1.5 28 8.8 SE 13 24 7 13 1022.0 1021.5 0.0
17/11:30am 19.2 14.0 0.3 28 8.4 SE 17 26 9 14 1022.5 1022.1 0.0
17/11:00am 18.8 13.6 -0.1 28 8.3 SE 17 24 9 13 1022.8 1022.4 0.0
17/10:30am 18.9 15.0 1.4 31 8.0 S 11 19 6 10 1023.1 1022.7 0.0
17/10:00am 18.0 13.0 1.1 32 7.6 S 17 24 9 13 1023.4 1023.0 0.0
17/09:30am 17.9 13.7 1.8 34 7.3 S 13 20 7 11 1023.5 1023.1 0.0
17/09:00am 16.7 12.4 1.2 35 6.9 SSW 13 20 7 11 1023.4 1023.0 0.0
17/08:30am 16.0 12.5 1.3 37 6.5 SSW 9 13 5 7 1023.2 1022.8 0.0
17/08:00am 14.5 11.7 3.0 46 5.2 S 7 9 4 5 1023.0 1022.6 0.0
17/07:30am 12.2 8.7 1.5 48 4.6 S 9 9 5 5 1022.7 1022.3 0.0
17/07:00am 10.9 8.6 2.7 57 3.6 SSW 4 9 2 5 1022.5 1022.1 0.0
17/06:30am 11.1 9.6 2.9 57 3.6 CALM 0 0 0 0 1022.3 1021.9 0.0
17/06:00am 11.1 9.5 2.7 56 3.7 CALM 0 0 0 0 1022.0 1021.5 0.0
17/05:30am 11.3 9.8 2.9 56 3.7 CALM 0 0 0 0 1021.6 1021.1 0.0
17/05:00am 11.3 9.7 2.3 54 3.9 CALM 0 0 0 0 1021.5 1021.0 0.0
17/04:30am 12.1 9.2 1.7 49 4.5 SE 6 7 3 4 1021.4 1020.9 0.0
17/04:00am 13.1 10.1 2.1 47 4.8 SE 7 7 4 4 1021.0 1020.6 0.0
17/03:30am 13.6 10.5 1.6 44 5.2 SSE 7 11 4 6 1020.9 1020.5 0.0
17/03:00am 14.2 10.0 1.8 43 5.5 S 13 15 7 8 1020.7 1020.3 0.0
17/02:30am 15.8 11.5 1.2 37 6.5 S 13 15 7 8 1020.6 1020.2 0.0
17/02:00am 16.1 12.4 2.5 40 6.2 S 11 13 6 7 1020.7 1020.3 0.0
17/01:30am 13.5 11.4 4.1 53 4.3 SSE 4 7 2 4 1020.9 1020.5 0.0
17/01:00am 15.5 12.7 5.1 50 5.0 S 9 11 5 6 1021.0 1020.6 0.0
17/12:30am 13.7 12.5 4.8 55 4.2 CALM 0 0 0 0 1021.0 1020.6 0.0
17/12:00am 13.6 12.4 4.7 55 4.1 CALM 0 0 0 0 1021.4 1020.9 0.0
 
Date/Time
EST
Temp
°C
App
Temp
°C
Dew
Point
°C
Rel
Hum
%
Delta-T
°C
Wind Press
QNH
hPa
Press
MSL
hPa
Rain since
9am
mm
Dir  Spd
km/h
Gust
km/h
Spd
kts
Gust
kts
16/11:30pm 14.9 12.6 4.9 51 4.7 E 6 7 3 4 1021.5 1021.0 0.0
16/11:00pm 16.0 14.1 5.0 48 5.3 E 4 6 2 3 1021.6 1021.1 0.0
16/10:30pm 16.7 14.1 4.4 44 5.9 E 7 11 4 6 1021.7 1021.2 0.0
16/10:00pm 18.6 15.2 4.0 38 7.0 S 11 11 6 6 1021.5 1021.0 0.0
16/09:30pm 18.9 15.6 4.7 39 6.9 S 11 13 6 7 1021.7 1021.2 0.0
16/09:00pm 20.2 17.2 6.2 40 7.1 S 11 15 6 8 1021.6 1021.1 0.0
16/08:30pm 19.3 17.3 8.6 50 5.6 SW 9 11 5 6 1021.4 1020.9 0.0
16/08:00pm 20.0 18.6 8.7 48 6.0 WSW 6 9 3 5 1021.1 1020.7 0.0
16/07:30pm 20.5 19.4 8.5 46 6.4 SSW 4 6 2 3 1020.6 1020.2 0.0
16/07:00pm 21.8 20.3 8.3 42 7.2 SSW 6 6 3 3 1020.4 1020.0 0.0
16/06:30pm 23.2 21.6 8.9 40 7.7 SW 7 9 4 5 1020.1 1019.7 0.0
16/06:00pm 23.3 21.4 9.0 40 7.7 SW 9 11 5 6 1019.7 1019.3 0.0
16/05:30pm 24.0 22.4 8.8 38 8.3 NNW 7 9 4 5 1019.5 1019.1 0.0
16/05:00pm 25.1 23.5 8.6 35 9.0 N 7 9 4 5 1019.1 1018.7 0.0
16/04:30pm 25.9 23.7 9.3 35 9.2 N 11 15 6 8 1018.9 1018.5 0.0
16/04:00pm 26.4 23.7 8.8 33 9.7 NW 13 19 7 10 1018.8 1018.4 0.0
16/03:30pm 26.9 25.1 9.3 33 9.8 NNE 9 19 5 10 1018.8 1018.4 0.0
16/03:00pm 26.9 25.5 9.7 34 9.6 NW 7 15 4 8 1019.1 1018.7 0.0

Other Formats:

Comma delimited format used in spreadsheet applications
http://www.bom.gov.au/fwo/IDQ60801/IDQ60801.94397.axf

JavaScript Object Notation format (JSON) in row-major order
http://www.bom.gov.au/fwo/IDQ60801/IDQ60801.94397.json